Portland, Illinois
Current Conditions -  °F | °C
As of 12:55 PM on Monday 20 Oct 2014 (Local Time) from KSQI Reporting Station
Clear Clear  
Wind Chill: 66°   Ceiling: Unl
Heat Index: 66°   Visibility: 10mi
Dew Point: 45°   Wind: 21mph
Humidity: 46%   Direction: 340°NNW
Pressure: 29.9"   Gusts: 24mph
Location:  41.5909°N, 89.9498°W
Report Text: KSQI 201755Z AUTO 34018G21KT 10SM CLR 19/07 A2990 RMK AO1 10190 20060 57003
Loading
Personal Weather Stations






























Interactive Weather Map
Tropical Storm Tracking
New forecast layout! Learn more

10-Day Weather Forecast

Advertisements
Track Severe Weather on mobile